Dati Storici Stazione MacerataMeteo
 
Dati Giornalieri Novembre 19, 2018 UnitÓ:  Metrica    Inglese   Entrambe
« Precedente Giorno
Successivo Giorno »
Dati Giornalieri Dati Settimanali Dati Mensili Dati Annuali Personalizza
  Attuale: Massima: Minima: Media:
Temperatura: 7.6 °C -17.8 °C 5.1 °C 5.6 °C
Punto di Rugiada: 4.7 °C -17.8 °C 1.9 °C 2.7 °C
UmiditÓ: 82% Humidity% 78% 81%
Vento-VelocitÓ: 3.2km/h 0km/h 0km/h 2.7km/h
Vento-Raffica: 4.8km/h 0km/h - -
Vento-DirezioneNNE - - OSO
Pressione: 1009.4 hPa 0 hPa 1009.4 hPa -
Precipitazioni: 0 mm      
Historical Graphs
 
 
Dati Riepilogativi per Novembre 19, 2018
Ora Temperatura Punto di Rugiada Pressione Vento-Direzione Vento-VelocitÓ Vento-Raffica UmiditÓ IntensitÓ Pioggia Caduta (Oraria) Radiazione Solare Condizioni
-17.8 °C -17.8 °C 0 hPa Calm     Humidity% 0 mm SolarRadiationWatts/m^2 W/m2 Conditions
00:00 5.7 °C 3.1 °C 1012.4 hPa WSW 4.8 km/h 11.3 km/h 83% 0 mm 0.00 W/m2
00:10 5.7 °C 3.1 °C 1012.1 hPa West 1.6 km/h 9.7 km/h 83% 0 mm 0.00 W/m2
00:20 5.7 °C 2.8 °C 1012.1 hPa Calm   11.3 km/h 82% 0 mm 0.00 W/m2
00:30 5.7 °C 2.8 °C 1012.1 hPa WSW 3.2 km/h 11.3 km/h 82% 0 mm 0.00 W/m2
00:40 5.6 °C 2.6 °C 1012.1 hPa WSW 1.6 km/h 4.8 km/h 81% 0 mm 0.00 W/m2
01:00 5.7 °C 2.7 °C 1011.7 hPa West 8 km/h 9.7 km/h 81% 0 mm 0.00 W/m2
01:10 5.7 °C 2.7 °C 1011.7 hPa SW 3.2 km/h 11.3 km/h 81% 0 mm 0.00 W/m2
01:20 5.7 °C 2.7 °C 1011.4 hPa WSW 4.8 km/h 11.3 km/h 81% 0 mm 0.00 W/m2
01:30 5.7 °C 2.7 °C 1011.4 hPa West 3.2 km/h 11.3 km/h 81% 0 mm 0.00 W/m2
01:40 5.7 °C 2.7 °C 1011.4 hPa WSW 4.8 km/h 9.7 km/h 81% 0 mm 0.00 W/m2
01:50 5.6 °C 2.4 °C 1011.4 hPa WNW 1.6 km/h 9.7 km/h 80% 0 mm 0.00 W/m2
02:00 5.5 °C 2.3 °C 1011.4 hPa West 1.6 km/h 9.7 km/h 80% 0 mm 0.00 W/m2
02:10 5.3 °C 2.3 °C 1011.4 hPa West 3.2 km/h 8 km/h 81% 0 mm 0.00 W/m2
02:20 5.3 °C 2.3 °C 1011.1 hPa West 3.2 km/h 8 km/h 81% 0 mm 0.00 W/m2
02:30 5.2 °C 2.2 °C 1011.1 hPa West 1.6 km/h 8 km/h 81% 0 mm 0.00 W/m2
02:40 5.2 °C 2.2 °C 1011.1 hPa West 1.6 km/h 4.8 km/h 81% 0 mm 0.00 W/m2
02:50 5.2 °C 2.2 °C 1011.1 hPa WSW 3.2 km/h 6.4 km/h 81% 0 mm 0.00 W/m2
03:00 5.3 °C 2.3 °C 1011.1 hPa WSW 3.2 km/h 6.4 km/h 81% 0 mm 0.00 W/m2
03:11 5.3 °C 2.3 °C 1011.1 hPa WSW 3.2 km/h 6.4 km/h 81% 0 mm 0.00 W/m2
03:21 5.3 °C 2.1 °C 1010.7 hPa WSW 6.4 km/h 6.4 km/h 80% 0 mm 0.00 W/m2
03:30 5.3 °C 2 °C 1010.7 hPa West 1.6 km/h 9.7 km/h 79% 0 mm 0.00 W/m2
03:41 5.4 °C 2.1 °C 1010.7 hPa Calm   8 km/h 79% 0 mm 0.00 W/m2
03:51 5.5 °C 2.2 °C 1010.7 hPa West 1.6 km/h 8 km/h 79% 0 mm 0.00 W/m2
04:00 5.5 °C 2.2 °C 1010.7 hPa NW 4.8 km/h 8 km/h 79% 0 mm 0.00 W/m2
04:01 5.5 °C 2.2 °C 1010.7 hPa NW 1.6 km/h 6.4 km/h 79% 0 mm 0.00 W/m2
04:11 5.5 °C 1.9 °C 1010.7 hPa West 3.2 km/h 9.7 km/h 78% 0 mm 0.00 W/m2
04:21 5.4 °C 2.1 °C 1010.7 hPa NW 1.6 km/h 9.7 km/h 79% 0 mm 0.00 W/m2
04:30 5.4 °C 2.1 °C 1010.4 hPa NW 3.2 km/h 11.3 km/h 79% 0 mm 0.00 W/m2
04:31 5.4 °C 2.1 °C 1010.4 hPa WNW 4.8 km/h 4.8 km/h 79% 0 mm 0.00 W/m2
04:41 5.3 °C 2 °C 1010.4 hPa WNW 1.6 km/h 8 km/h 79% 0 mm 0.00 W/m2
04:51 5.3 °C 1.9 °C 1010.4 hPa West 3.2 km/h 9.7 km/h 79% 0 mm 0.00 W/m2
05:00 5.2 °C 2 °C 1010.4 hPa Calm   11.3 km/h 80% 0 mm 0.00 W/m2
05:01 5.2 °C 2 °C 1010.4 hPa NW 3.2 km/h 9.7 km/h 80% 0 mm 0.00 W/m2
05:11 5.2 °C 2 °C 1010 hPa NW 9.7 km/h 14.5 km/h 80% 0 mm 0.00 W/m2
05:21 5.1 °C 2.1 °C 1010 hPa WNW 8 km/h 14.5 km/h 81% 0 mm 0.00 W/m2
05:30 5.1 °C 2.1 °C 1010.4 hPa West 9.7 km/h 14.5 km/h 81% 0 mm 0.00 W/m2
05:31 5.1 °C 2.1 °C 1010 hPa WSW 3.2 km/h 9.7 km/h 81% 0 mm 0.00 W/m2
05:41 5.1 °C 2.2 °C 1010 hPa West 9.7 km/h 11.3 km/h 82% 0 mm 0.00 W/m2
05:51 5.1 °C 2.2 °C 1010 hPa WSW 6.4 km/h 11.3 km/h 82% 0 mm 0.00 W/m2
06:00 5.1 °C 2.3 °C 1010 hPa SW 6.4 km/h 12.9 km/h 82% 0 mm 0.00 W/m2
06:01 5.1 °C 2.3 °C 1010 hPa WSW 9.7 km/h 9.7 km/h 82% 0 mm 0.00 W/m2
06:11 5.2 °C 2.4 °C 1010 hPa WSW 6.4 km/h 12.9 km/h 82% 0 mm 0.00 W/m2
06:21 5.3 °C 2.4 °C 1010 hPa WSW 1.6 km/h 12.9 km/h 82% 0 mm 0.00 W/m2
06:30 5.3 °C 2.5 °C 1010 hPa West 4.8 km/h 12.9 km/h 82% 0 mm 0.00 W/m2
06:31 5.3 °C 2.5 °C 1010 hPa SW 4.8 km/h 12.9 km/h 82% 0 mm 0.00 W/m2
06:41 5.3 °C 2.7 °C 1010 hPa SW 6.4 km/h 12.9 km/h 83% 0 mm 0.00 W/m2
06:51 5.3 °C 2.7 °C 1010 hPa WSW 3.2 km/h 12.9 km/h 83% 0 mm 0.00 W/m2
07:00 5.4 °C 2.7 °C 1010 hPa Calm   12.9 km/h 83% 0 mm 0.00 W/m2
07:01 5.4 °C 2.7 °C 1010 hPa WSW 3.2 km/h 4.8 km/h 83% 0 mm 0.00 W/m2
07:11 5.3 °C 2.7 °C 1010 hPa WSW 1.6 km/h 4.8 km/h 83% 0 mm 0.00 W/m2
07:21 5.4 °C 2.7 °C 1010 hPa WSW 1.6 km/h 4.8 km/h 83% 0 mm 0.00 W/m2
07:30 5.4 °C 2.8 °C 1010 hPa WSW 3.2 km/h 4.8 km/h 83% 0 mm 5.00 W/m2
07:31 5.4 °C 2.8 °C 1010 hPa WSW 3.2 km/h 3.2 km/h 83% 0 mm 7.00 W/m2
07:41 5.5 °C 2.7 °C 1010 hPa WSW 3.2 km/h 4.8 km/h 82% 0 mm 9.00 W/m2
07:51 5.6 °C 2.7 °C 1010 hPa Calm   4.8 km/h 82% 0 mm 16.00 W/m2
08:00 5.6 °C 2.8 °C 1010.4 hPa Calm   4.8 km/h 82% 0 mm 18.00 W/m2
08:01 5.6 °C 2.8 °C 1010.4 hPa Calm     82% 0 mm 19.00 W/m2
08:11 5.8 °C 2.9 °C 1010.4 hPa Calm   3.2 km/h 82% 0 mm 40.00 W/m2
08:21 5.7 °C 2.7 °C 1010.4 hPa Calm   3.2 km/h 81% 0 mm 54.00 W/m2
08:30 5.8 °C 2.8 °C 1010.4 hPa Calm   3.2 km/h 81% 0 mm 65.00 W/m2
08:31 5.8 °C 2.8 °C 1010.4 hPa Calm     81% 0 mm 65.00 W/m2
08:41 5.8 °C 3 °C 1010.4 hPa Calm   3.2 km/h 82% 0 mm 56.00 W/m2
08:51 5.8 °C 2.9 °C 1010.4 hPa Calm   4.8 km/h 82% 0 mm 79.00 W/m2
09:00 5.8 °C 2.9 °C 1010 hPa WSW 6.4 km/h 6.4 km/h 82% 0 mm 88.00 W/m2
09:01 5.8 °C 2.9 °C 1010 hPa WSW 1.6 km/h 6.4 km/h 82% 0 mm 91.00 W/m2
09:11 5.8 °C 3 °C 1010 hPa Calm   6.4 km/h 82% 0 mm 114.00 W/m2
09:21 6 °C 3.2 °C 1010 hPa WSW 1.6 km/h 6.4 km/h 82% 0 mm 114.00 W/m2
09:30 6.1 °C 3.2 °C 1010 hPa Calm   6.4 km/h 82% 0 mm 113.00 W/m2
09:31 6.1 °C 3.2 °C 1010 hPa Calm   1.6 km/h 82% 0 mm 118.00 W/m2
09:41 6.1 °C 3.2 °C 1010 hPa WSW 3.2 km/h 8 km/h 82% 0 mm 134.00 W/m2
09:51 6.2 °C 3.3 °C 1010 hPa Calm   8 km/h 82% 0 mm 155.00 W/m2
10:00 6.4 °C 3.7 °C 1010 hPa WSW 1.6 km/h 8 km/h 83% 0 mm 123.00 W/m2
10:01 6.4 °C 3.6 °C 1010 hPa WSW 3.2 km/h 4.8 km/h 82% 0 mm 114.00 W/m2
10:11 6.2 °C 3.5 °C 1010 hPa WSW 1.6 km/h 6.4 km/h 83% 0 mm 116.00 W/m2
10:21 6.2 °C 3.5 °C 1010 hPa WSW 3.2 km/h 6.4 km/h 83% 0 mm 134.00 W/m2
10:30 6.2 °C 3.6 °C 1010 hPa WSW 3.2 km/h 6.4 km/h 83% 0 mm 155.00 W/m2
10:31 6.2 °C 3.6 °C 1010 hPa WSW 1.6 km/h 3.2 km/h 83% 0 mm 172.00 W/m2
10:41 6.4 °C 3.7 °C 1010 hPa WSW 1.6 km/h 4.8 km/h 83% 0 mm 172.00 W/m2
10:51 6.6 °C 4.1 °C 1010 hPa Calm   4.8 km/h 84% 0 mm 185.00 W/m2
11:00 6.7 °C 4 °C 1010 hPa WSW 1.6 km/h 4.8 km/h 83% 0 mm 160.00 W/m2
11:01 6.7 °C 4.1 °C 1010 hPa WSW 1.6 km/h 3.2 km/h 83% 0 mm 169.00 W/m2
11:11 7 °C 4.3 °C 1009.7 hPa Calm   3.2 km/h 83% 0 mm 241.00 W/m2
11:21 7 °C 4.2 °C 1009.7 hPa Calm   4.8 km/h 82% 0 mm 200.00 W/m2
11:30 7.3 °C 4.2 °C 1009.7 hPa WSW 1.6 km/h 4.8 km/h 81% 0 mm 193.00 W/m2
11:31 7.3 °C 4.2 °C 1009.7 hPa WSW 3.2 km/h 4.8 km/h 81% 0 mm 193.00 W/m2
11:41 7.1 °C 3.9 °C 1009.7 hPa Calm   4.8 km/h 80% 0 mm 211.00 W/m2
11:51 7.2 °C 4.2 °C 1009.4 hPa Calm   4.8 km/h 81% 0 mm 193.00 W/m2
12:00 7.4 °C 4.3 °C 1009.4 hPa WSW 3.2 km/h 6.4 km/h 81% 0 mm 142.00 W/m2
12:02 7.4 °C 4.3 °C 1009.4 hPa NNW 1.6 km/h 8 km/h 81% 0 mm 134.00 W/m2
12:12 7.4 °C 4.4 °C 1009.4 hPa NNW 3.2 km/h 8 km/h 81% 0 mm 163.00 W/m2
12:22 7.4 °C 4.4 °C 1009.4 hPa NE 3.2 km/h 8 km/h 81% 0 mm 167.00 W/m2
12:30 7.6 °C 4.7 °C 1009.4 hPa Calm   8 km/h 82% 0 mm 127.00 W/m2
12:31 7.6 °C 4.7 °C 1009.4 hPa NNE 3.2 km/h 4.8 km/h 82% 0 mm 120.00 W/m2
MacerataMeteo
Maceratameteo.it Weather Underground - 2 mb